Holy Cross — WDE7144 — position and weather

sailwx.info

Track history (hours):
 
Tides and Currents Weather Stations Pressure Air Temp Water Temp Dewpoint Dewpoint Depression Visibility Wind Speed Wind Dir Waves Ship Positions

Holy Cross

Owner: Marquette Transportation Company Gulf-Inland, LLC, Jefferson, LA. More information available from US FCC via Universal Licensing System and Coast Guard Vessel Documentation Center.

Last reported at 2017-Sep-22 02:00 UTC. Time now 2017-Sep-23 00:23 UTC.
Position N 29°38' W 094°58'.

; draft 2.7 m.

Type: . MMSI: 367389540.

Date/timePositionNaut miles runAvg speedWind from/ knotsBaromVisibWave heightAir tempDewpointWater temp
2017-Sep-22 02:00N 29°38' W 094°58'3 5.7
2017-Sep-22 01:30N 29°41' W 094°59'3 5.1
2017-Sep-22 00:59N 29°43' W 095°01'2 4.5
2017-Sep-22 00:30N 29°44' W 095°03'3 4.8
2017-Sep-21 23:59N 29°46' W 095°05'1 1.8
2017-Sep-21 23:29N 29°47' W 095°04'0 0.1
2017-Sep-21 22:09N 29°47' W 095°04'0 0.3
2017-Sep-21 21:58N 29°47' W 095°05'1 1.1
2017-Sep-21 21:15N 29°48' W 095°04'1 2.6
2017-Sep-21 20:59N 29°47' W 095°04'0 0.1
2017-Sep-21 20:30N 29°47' W 095°04'0 0.2
2017-Sep-21 19:59N 29°47' W 095°04'0 0.2
2017-Sep-21 19:16N 29°47' W 095°04'0 0.0
2017-Sep-21 18:46N 29°47' W 095°04'0 0.0
2017-Sep-21 18:28N 29°47' W 095°04'1 0.4
2017-Sep-21 16:46N 29°48' W 095°04'1 2.3
2017-Sep-21 16:26N 29°47' W 095°04'1 0.6
2017-Sep-21 13:55N 29°46' W 095°06'2 0.8
2017-Sep-21 11:45N 29°47' W 095°04'2 5.0
2017-Sep-21 11:26N 29°46' W 095°05'6 2.5
2017-Sep-21 09:10N 29°45' W 095°12'1 6.7
2017-Sep-21 08:57N 29°45' W 095°10'3 6.1
2017-Sep-21 08:30N 29°44' W 095°07'4 0.9
2017-Sep-21 03:57N 29°48' W 095°04'2 1.1
2017-Sep-21 01:57N 29°46' W 095°06'0 0.6
2017-Sep-21 01:30N 29°46' W 095°06'1 1.1
2017-Sep-21 00:30N 29°47' W 095°05'1 2.9
2017-Sep-21 00:00N 29°45' W 095°04'3 5.6
2017-Sep-20 23:30N 29°44' W 095°01'3 5.8
2017-Sep-20 23:00N 29°41' W 094°59'3 6.2
2017-Sep-20 22:30N 29°38' W 094°58'3 6.3
2017-Sep-20 22:00N 29°36' W 094°56'3 6.3
2017-Sep-20 21:30N 29°33' W 094°54'3 5.9
2017-Sep-20 21:00N 29°30' W 094°52'68 4.5
2017-Sep-20 05:57N 30°03' W 093°44'2 5.2
2017-Sep-20 05:30N 30°04' W 093°41'3 5.3
2017-Sep-20 05:00N 30°04' W 093°38'2 4.9
2017-Sep-20 04:30N 30°04' W 093°35'2 4.7
2017-Sep-20 04:00N 30°04' W 093°33'2 4.7
2017-Sep-20 03:30N 30°04' W 093°30'2 4.7
2017-Sep-20 03:00N 30°04' W 093°27'2 4.6
2017-Sep-20 02:30N 30°04' W 093°25'2 4.8
2017-Sep-20 02:00N 30°04' W 093°22'2 4.9
2017-Sep-20 01:30N 30°05' W 093°20'2 3.6
2017-Sep-20 01:00N 30°05' W 093°18'2 3.0
2017-Sep-20 00:30N 30°04' W 093°16'0 0.1
2017-Sep-20 00:00N 30°04' W 093°16'0 0.0
2017-Sep-19 23:30N 30°04' W 093°16'1 2.2
2017-Sep-19 23:00N 30°03' W 093°16'2 4.9
2017-Sep-19 22:30N 30°01' W 093°14'3 5.3
2017-Sep-19 22:00N 29°59' W 093°12'3 5.7
2017-Sep-19 21:30N 29°57' W 093°10'3 5.0
2017-Sep-19 20:54N 29°56' W 093°07'40 4.9
2017-Sep-19 12:45N 29°51' W 092°21'1 4.7
2017-Sep-19 12:30N 29°51' W 092°20'2 4.5
2017-Sep-19 12:00N 29°50' W 092°18'2 4.6
2017-Sep-19 11:30N 29°48' W 092°15'2 5.0
2017-Sep-19 11:00N 29°47' W 092°13'2 4.8
2017-Sep-19 10:30N 29°47' W 092°10'2 4.8
2017-Sep-19 10:00N 29°47' W 092°07'2 4.8
2017-Sep-19 09:30N 29°48' W 092°05'2 4.9
2017-Sep-19 09:00N 29°49' W 092°02'  
2017-Sep-16 18:12N 29°49' W 092°02'1 4.6
2017-Sep-16 18:00N 29°49' W 092°03'2 4.7
2017-Sep-16 17:30N 29°48' W 092°06'2 4.8
2017-Sep-16 17:00N 29°47' W 092°09'2 4.7
2017-Sep-16 16:30N 29°47' W 092°11'2 4.9
2017-Sep-16 16:00N 29°48' W 092°14'2 4.4
2017-Sep-16 15:30N 29°49' W 092°16'2 4.8
2017-Sep-16 15:00N 29°50' W 092°18'2 4.2
2017-Sep-16 14:28N 29°51' W 092°21'33 3.8
2017-Sep-16 05:39N 29°56' W 092°59'1 4.3
2017-Sep-16 05:30N 29°56' W 092°60'2 4.3
2017-Sep-16 04:59N 29°56' W 093°02'2 4.2
2017-Sep-16 04:30N 29°56' W 093°05'2 4.2
2017-Sep-16 04:00N 29°56' W 093°07'2 4.2
2017-Sep-16 03:30N 29°56' W 093°09'2 4.1
2017-Sep-16 03:00N 29°58' W 093°11'2 4.0
2017-Sep-16 02:30N 29°59' W 093°12'2 3.8
2017-Sep-16 02:00N 30°01' W 093°14'2 3.5
2017-Sep-16 01:28N 30°02' W 093°15'2 3.5
2017-Sep-16 01:00N 30°04' W 093°16'2 4.0
2017-Sep-16 00:30N 30°05' W 093°17'2 3.2
2017-Sep-16 00:00N 30°06' W 093°19'2 4.8
2017-Sep-15 23:30N 30°04' W 093°21'2 3.1
2017-Sep-15 23:00N 30°04' W 093°22'0 0.0
2017-Sep-15 22:30N 30°04' W 093°22'1 1.4
2017-Sep-15 22:00N 30°04' W 093°21'1 1.3
2017-Sep-15 21:30N 30°04' W 093°22'0 0.1
2017-Sep-15 21:00N 30°04' W 093°22'0 0.1
2017-Sep-15 20:30N 30°04' W 093°22'1 1.3
2017-Sep-15 20:00N 30°04' W 093°21'1 1.2
2017-Sep-15 19:30N 30°04' W 093°22'0 0.1
2017-Sep-15 19:00N 30°04' W 093°22'2 4.4
2017-Sep-15 18:30N 30°04' W 093°25'3 5.6
2017-Sep-15 18:00N 30°04' W 093°28'3 5.5
2017-Sep-15 17:30N 30°04' W 093°31'3 5.5
2017-Sep-15 17:00N 30°04' W 093°34'3 5.6
2017-Sep-15 16:30N 30°04' W 093°38'3 5.5
2017-Sep-15 16:00N 30°04' W 093°41'71 3.8
2017-Sep-14 21:24N 29°30' W 094°52'3 6.6
2017-Sep-14 21:00N 29°32' W 094°54'3 6.1
2017-Sep-14 20:30N 29°34' W 094°56'3 6.0
2017-Sep-14 20:00N 29°37' W 094°57'3 6.1
2017-Sep-14 19:30N 29°40' W 094°59'3 6.2
2017-Sep-14 19:00N 29°42' W 095°01'3 5.3
2017-Sep-14 18:30N 29°44' W 095°03'3 5.4
2017-Sep-14 17:58N 29°47' W 095°05'1 0.4
2017-Sep-14 15:22N 29°46' W 095°05'1 2.9
2017-Sep-14 14:53N 29°47' W 095°04'2 0.9
2017-Sep-14 12:59N 29°46' W 095°06'2 2.8
2017-Sep-14 12:13N 29°47' W 095°04'1 2.5
2017-Sep-14 11:58N 29°47' W 095°05'0 0.0
2017-Sep-14 10:56N 29°47' W 095°05'0 0.0
2017-Sep-14 10:30N 29°47' W 095°05'0 0.0
2017-Sep-14 10:00N 29°47' W 095°05'0 0.0
2017-Sep-14 09:30N 29°47' W 095°05'0 0.0
2017-Sep-14 09:00N 29°47' W 095°05'0 0.0
2017-Sep-14 08:30N 29°47' W 095°05'0 0.0
2017-Sep-14 08:00N 29°47' W 095°05'0 0.0
2017-Sep-14 07:30N 29°47' W 095°05'0 0.0
2017-Sep-14 07:00N 29°47' W 095°05'0 0.0
2017-Sep-14 06:29N 29°47' W 095°05'0 0.0
2017-Sep-14 06:00N 29°47' W 095°05'0 0.0
2017-Sep-14 05:30N 29°47' W 095°05'0 0.0
2017-Sep-14 05:00N 29°47' W 095°05'0 0.0
2017-Sep-14 04:25N 29°47' W 095°05'0 0.0
2017-Sep-14 03:34N 29°47' W 095°05'0 0.0
2017-Sep-14 03:28N 29°47' W 095°05'0 0.0
2017-Sep-14 02:57N 29°47' W 095°05'0 0.0
2017-Sep-14 02:28N 29°47' W 095°05'0 0.0
2017-Sep-14 01:10N 29°47' W 095°05'0 0.0
2017-Sep-13 16:46N 29°47' W 095°05'1 0.4
2017-Sep-13 14:05N 29°46' W 095°05'1 6.8
2017-Sep-13 14:00N 29°46' W 095°05'1 1.6
2017-Sep-13 13:28N 29°47' W 095°05'0 0.0
2017-Sep-13 12:54N 29°47' W 095°05'0 0.0
2017-Sep-13 12:17N 29°47' W 095°05'0 0.0
2017-Sep-13 11:40N 29°47' W 095°05'0 0.0
2017-Sep-13 07:47N 29°47' W 095°05'0 0.2
2017-Sep-13 07:30N 29°47' W 095°05'1 0.6
2017-Sep-13 06:33N 29°46' W 095°05'0 5.7
2017-Sep-13 06:30N 29°46' W 095°05'1 1.3
2017-Sep-13 05:44N 29°45' W 095°06'0 0.6
2017-Sep-13 05:29N 29°46' W 095°06'2 3.6
2017-Sep-13 04:56N 29°47' W 095°04'0 0.3
2017-Sep-13 04:29N 29°47' W 095°04'1 1.7
2017-Sep-13 03:42N 29°46' W 095°05'1 5.5
2017-Sep-13 03:30N 29°45' W 095°04'3 5.5
2017-Sep-13 03:00N 29°43' W 095°01'2 4.3
2017-Sep-13 02:30N 29°42' W 094°60'3 5.8
2017-Sep-13 02:00N 29°39' W 094°58'3 6.3
2017-Sep-13 01:30N 29°36' W 094°57'3 6.3
2017-Sep-13 01:00N 29°34' W 094°55'3 6.3
2017-Sep-13 00:30N 29°31' W 094°53'3 6.1
2017-Sep-13 00:00N 29°28' W 094°51'78 4.9
2017-Sep-12 07:59N 30°04' W 093°31'2 4.1
2017-Sep-12 07:29N 30°04' W 093°29'4 4.1
2017-Sep-12 06:35N 30°04' W 093°24'0 4.2
2017-Sep-12 06:29N 30°04' W 093°24'2 4.3
2017-Sep-12 06:00N 30°04' W 093°21'2 4.1
2017-Sep-12 05:29N 30°05' W 093°20'2 3.6
2017-Sep-12 05:00N 30°05' W 093°18'2 4.3
2017-Sep-12 04:30N 30°04' W 093°16'2 4.9
2017-Sep-12 04:00N 30°02' W 093°15'2 4.4
2017-Sep-12 03:30N 29°60' W 093°13'1 1.6
2017-Sep-12 03:00N 29°59' W 093°13'2 4.0
2017-Sep-12 02:30N 29°58' W 093°11'3 5.4
2017-Sep-12 02:00N 29°56' W 093°09'  
Track history (hours):
 
Tides and Currents Weather Stations Pressure Air Temp Water Temp Dewpoint Dewpoint Depression Visibility Wind Speed Wind Dir Waves Ship Positions

Holy Cross

Owner: Marquette Transportation Company Gulf-Inland, LLC, Jefferson, LA. More information available from US FCC via Universal Licensing System and Coast Guard Vessel Documentation Center.

Last reported at 2017-Sep-22 02:00 UTC. Time now 2017-Sep-23 00:23 UTC.
Position N 29°38' W 094°58'.

; draft 2.7 m.

Type: . MMSI: 367389540.

Date/timePositionNaut miles runAvg speedWind from/ knotsBaromVisibWave heightAir tempDewpointWater temp
2017-Sep-22 02:00N 29°38' W 094°58'3 5.7
2017-Sep-22 01:30N 29°41' W 094°59'3 5.1
2017-Sep-22 00:59N 29°43' W 095°01'2 4.5
2017-Sep-22 00:30N 29°44' W 095°03'3 4.8
2017-Sep-21 23:59N 29°46' W 095°05'1 1.8
2017-Sep-21 23:29N 29°47' W 095°04'0 0.1
2017-Sep-21 22:09N 29°47' W 095°04'0 0.3
2017-Sep-21 21:58N 29°47' W 095°05'1 1.1
2017-Sep-21 21:15N 29°48' W 095°04'1 2.6
2017-Sep-21 20:59N 29°47' W 095°04'0 0.1
2017-Sep-21 20:30N 29°47' W 095°04'0 0.2
2017-Sep-21 19:59N 29°47' W 095°04'0 0.2
2017-Sep-21 19:16N 29°47' W 095°04'0 0.0
2017-Sep-21 18:46N 29°47' W 095°04'0 0.0
2017-Sep-21 18:28N 29°47' W 095°04'1 0.4
2017-Sep-21 16:46N 29°48' W 095°04'1 2.3
2017-Sep-21 16:26N 29°47' W 095°04'1 0.6
2017-Sep-21 13:55N 29°46' W 095°06'2 0.8
2017-Sep-21 11:45N 29°47' W 095°04'2 5.0
2017-Sep-21 11:26N 29°46' W 095°05'6 2.5
2017-Sep-21 09:10N 29°45' W 095°12'1 6.7
2017-Sep-21 08:57N 29°45' W 095°10'3 6.1
2017-Sep-21 08:30N 29°44' W 095°07'4 0.9
2017-Sep-21 03:57N 29°48' W 095°04'2 1.1
2017-Sep-21 01:57N 29°46' W 095°06'0 0.6
2017-Sep-21 01:30N 29°46' W 095°06'1 1.1
2017-Sep-21 00:30N 29°47' W 095°05'1 2.9
2017-Sep-21 00:00N 29°45' W 095°04'3 5.6
2017-Sep-20 23:30N 29°44' W 095°01'3 5.8
2017-Sep-20 23:00N 29°41' W 094°59'3 6.2
2017-Sep-20 22:30N 29°38' W 094°58'3 6.3
2017-Sep-20 22:00N 29°36' W 094°56'3 6.3
2017-Sep-20 21:30N 29°33' W 094°54'3 5.9
2017-Sep-20 21:00N 29°30' W 094°52'68 4.5
2017-Sep-20 05:57N 30°03' W 093°44'2 5.2
2017-Sep-20 05:30N 30°04' W 093°41'3 5.3
2017-Sep-20 05:00N 30°04' W 093°38'2 4.9
2017-Sep-20 04:30N 30°04' W 093°35'2 4.7
2017-Sep-20 04:00N 30°04' W 093°33'2 4.7
2017-Sep-20 03:30N 30°04' W 093°30'2 4.7
2017-Sep-20 03:00N 30°04' W 093°27'2 4.6
2017-Sep-20 02:30N 30°04' W 093°25'2 4.8
2017-Sep-20 02:00N 30°04' W 093°22'2 4.9
2017-Sep-20 01:30N 30°05' W 093°20'2 3.6
2017-Sep-20 01:00N 30°05' W 093°18'2 3.0
2017-Sep-20 00:30N 30°04' W 093°16'0 0.1
2017-Sep-20 00:00N 30°04' W 093°16'0 0.0
2017-Sep-19 23:30N 30°04' W 093°16'1 2.2
2017-Sep-19 23:00N 30°03' W 093°16'2 4.9
2017-Sep-19 22:30N 30°01' W 093°14'3 5.3
2017-Sep-19 22:00N 29°59' W 093°12'3 5.7
2017-Sep-19 21:30N 29°57' W 093°10'3 5.0
2017-Sep-19 20:54N 29°56' W 093°07'40 4.9
2017-Sep-19 12:45N 29°51' W 092°21'1 4.7
2017-Sep-19 12:30N 29°51' W 092°20'2 4.5
2017-Sep-19 12:00N 29°50' W 092°18'2 4.6
2017-Sep-19 11:30N 29°48' W 092°15'2 5.0
2017-Sep-19 11:00N 29°47' W 092°13'2 4.8
2017-Sep-19 10:30N 29°47' W 092°10'2 4.8
2017-Sep-19 10:00N 29°47' W 092°07'2 4.8
2017-Sep-19 09:30N 29°48' W 092°05'2 4.9
2017-Sep-19 09:00N 29°49' W 092°02'  
2017-Sep-16 18:12N 29°49' W 092°02'1 4.6
2017-Sep-16 18:00N 29°49' W 092°03'2 4.7
2017-Sep-16 17:30N 29°48' W 092°06'2 4.8
2017-Sep-16 17:00N 29°47' W 092°09'2 4.7
2017-Sep-16 16:30N 29°47' W 092°11'2 4.9
2017-Sep-16 16:00N 29°48' W 092°14'2 4.4
2017-Sep-16 15:30N 29°49' W 092°16'2 4.8
2017-Sep-16 15:00N 29°50' W 092°18'2 4.2
2017-Sep-16 14:28N 29°51' W 092°21'33 3.8
2017-Sep-16 05:39N 29°56' W 092°59'1 4.3
2017-Sep-16 05:30N 29°56' W 092°60'2 4.3
2017-Sep-16 04:59N 29°56' W 093°02'2 4.2
2017-Sep-16 04:30N 29°56' W 093°05'2 4.2
2017-Sep-16 04:00N 29°56' W 093°07'2 4.2
2017-Sep-16 03:30N 29°56' W 093°09'2 4.1
2017-Sep-16 03:00N 29°58' W 093°11'2 4.0
2017-Sep-16 02:30N 29°59' W 093°12'2 3.8
2017-Sep-16 02:00N 30°01' W 093°14'2 3.5
2017-Sep-16 01:28N 30°02' W 093°15'2 3.5
2017-Sep-16 01:00N 30°04' W 093°16'2 4.0
2017-Sep-16 00:30N 30°05' W 093°17'2 3.2
2017-Sep-16 00:00N 30°06' W 093°19'2 4.8
2017-Sep-15 23:30N 30°04' W 093°21'2 3.1
2017-Sep-15 23:00N 30°04' W 093°22'0 0.0
2017-Sep-15 22:30N 30°04' W 093°22'1 1.4
2017-Sep-15 22:00N 30°04' W 093°21'1 1.3
2017-Sep-15 21:30N 30°04' W 093°22'0 0.1
2017-Sep-15 21:00N 30°04' W 093°22'0 0.1
2017-Sep-15 20:30N 30°04' W 093°22'1 1.3
2017-Sep-15 20:00N 30°04' W 093°21'1 1.2
2017-Sep-15 19:30N 30°04' W 093°22'0 0.1
2017-Sep-15 19:00N 30°04' W 093°22'2 4.4
2017-Sep-15 18:30N 30°04' W 093°25'3 5.6
2017-Sep-15 18:00N 30°04' W 093°28'3 5.5
2017-Sep-15 17:30N 30°04' W 093°31'3 5.5
2017-Sep-15 17:00N 30°04' W 093°34'3 5.6
2017-Sep-15 16:30N 30°04' W 093°38'3 5.5
2017-Sep-15 16:00N 30°04' W 093°41'71 3.8
2017-Sep-14 21:24N 29°30' W 094°52'3 6.6
2017-Sep-14 21:00N 29°32' W 094°54'3 6.1
2017-Sep-14 20:30N 29°34' W 094°56'3 6.0
2017-Sep-14 20:00N 29°37' W 094°57'3 6.1
2017-Sep-14 19:30N 29°40' W 094°59'3 6.2
2017-Sep-14 19:00N 29°42' W 095°01'3 5.3
2017-Sep-14 18:30N 29°44' W 095°03'3 5.4
2017-Sep-14 17:58N 29°47' W 095°05'1 0.4
2017-Sep-14 15:22N 29°46' W 095°05'1 2.9
2017-Sep-14 14:53N 29°47' W 095°04'2 0.9
2017-Sep-14 12:59N 29°46' W 095°06'2 2.8
2017-Sep-14 12:13N 29°47' W 095°04'1 2.5
2017-Sep-14 11:58N 29°47' W 095°05'0 0.0
2017-Sep-14 10:56N 29°47' W 095°05'0 0.0
2017-Sep-14 10:30N 29°47' W 095°05'0 0.0
2017-Sep-14 10:00N 29°47' W 095°05'0 0.0
2017-Sep-14 09:30N 29°47' W 095°05'0 0.0
2017-Sep-14 09:00N 29°47' W 095°05'0 0.0
2017-Sep-14 08:30N 29°47' W 095°05'0 0.0
2017-Sep-14 08:00N 29°47' W 095°05'0 0.0
2017-Sep-14 07:30N 29°47' W 095°05'0 0.0
2017-Sep-14 07:00N 29°47' W 095°05'0 0.0
2017-Sep-14 06:29N 29°47' W 095°05'0 0.0
2017-Sep-14 06:00N 29°47' W 095°05'0 0.0
2017-Sep-14 05:30N 29°47' W 095°05'0 0.0
2017-Sep-14 05:00N 29°47' W 095°05'0 0.0
2017-Sep-14 04:25N 29°47' W 095°05'0 0.0
2017-Sep-14 03:34N 29°47' W 095°05'0 0.0
2017-Sep-14 03:28N 29°47' W 095°05'0 0.0
2017-Sep-14 02:57N 29°47' W 095°05'0 0.0
2017-Sep-14 02:28N 29°47' W 095°05'0 0.0
2017-Sep-14 01:10N 29°47' W 095°05'0 0.0
2017-Sep-13 16:46N 29°47' W 095°05'1 0.4
2017-Sep-13 14:05N 29°46' W 095°05'1 6.8
2017-Sep-13 14:00N 29°46' W 095°05'1 1.6
2017-Sep-13 13:28N 29°47' W 095°05'0 0.0
2017-Sep-13 12:54N 29°47' W 095°05'0 0.0
2017-Sep-13 12:17N 29°47' W 095°05'0 0.0
2017-Sep-13 11:40N 29°47' W 095°05'0 0.0
2017-Sep-13 07:47N 29°47' W 095°05'0 0.2
2017-Sep-13 07:30N 29°47' W 095°05'1 0.6
2017-Sep-13 06:33N 29°46' W 095°05'0 5.7
2017-Sep-13 06:30N 29°46' W 095°05'1 1.3
2017-Sep-13 05:44N 29°45' W 095°06'0 0.6
2017-Sep-13 05:29N 29°46' W 095°06'2 3.6
2017-Sep-13 04:56N 29°47' W 095°04'0 0.3
2017-Sep-13 04:29N 29°47' W 095°04'1 1.7
2017-Sep-13 03:42N 29°46' W 095°05'1 5.5
2017-Sep-13 03:30N 29°45' W 095°04'3 5.5
2017-Sep-13 03:00N 29°43' W 095°01'2 4.3
2017-Sep-13 02:30N 29°42' W 094°60'3 5.8
2017-Sep-13 02:00N 29°39' W 094°58'3 6.3
2017-Sep-13 01:30N 29°36' W 094°57'3 6.3
2017-Sep-13 01:00N 29°34' W 094°55'3 6.3
2017-Sep-13 00:30N 29°31' W 094°53'3 6.1
2017-Sep-13 00:00N 29°28' W 094°51'78 4.9
2017-Sep-12 07:59N 30°04' W 093°31'2 4.1
2017-Sep-12 07:29N 30°04' W 093°29'4 4.1
2017-Sep-12 06:35N 30°04' W 093°24'0 4.2
2017-Sep-12 06:29N 30°04' W 093°24'2 4.3
2017-Sep-12 06:00N 30°04' W 093°21'2 4.1
2017-Sep-12 05:29N 30°05' W 093°20'2 3.6
2017-Sep-12 05:00N 30°05' W 093°18'2 4.3
2017-Sep-12 04:30N 30°04' W 093°16'2 4.9
2017-Sep-12 04:00N 30°02' W 093°15'2 4.4
2017-Sep-12 03:30N 29°60' W 093°13'1 1.6
2017-Sep-12 03:00N 29°59' W 093°13'2 4.0
2017-Sep-12 02:30N 29°58' W 093°11'3 5.4
2017-Sep-12 02:00N 29°56' W 093°09'  

Dump ship's entire track history